Time;durP1;ratioP1;P1;durP2;ratioP2;P2;SDS_P1;SDS_P2;PMS_P1;PMS_P2;Temp;Humidity;BMP_temperature;BMP_pressure;BME280_temperature;BME280_humidity;BME280_pressure;Samples;Min_cycle;Max_cycle;Signal;HPM_P1;HPM_P2
2024/01/30 00:00:44;;;;;;;21.08;11.40;;;5.10;99.90;;;;;;6172082;23;20441;-86
2024/01/30 00:03:10;;;;;;;23.60;13.05;;;4.50;99.90;;;;;;6172090;23;20013;-86
2024/01/30 00:05:37;;;;;;;21.17;12.45;;;4.50;99.90;;;;;;6172215;23;20471;-85
2024/01/30 00:08:04;;;;;;;18.42;11.77;;;5.30;99.90;;;;;;6147582;23;20096;-84
2024/01/30 00:10:31;;;;;;;22.17;11.45;;;4.40;99.90;;;;;;6172105;23;20456;-85
2024/01/30 00:12:57;;;;;;;21.92;11.57;;;4.40;99.90;;;;;;6172348;23;20017;-85
2024/01/30 00:15:24;;;;;;;19.70;10.70;;;5.30;99.90;;;;;;6172108;23;20537;-85
2024/01/30 00:17:52;;;;;;;19.80;11.18;;;4.40;99.90;;;;;;6171603;23;20014;-85
2024/01/30 00:20:19;;;;;;;20.48;11.82;;;4.50;99.90;;;;;;6171963;23;20172;-85
2024/01/30 00:22:45;;;;;;;21.58;11.57;;;4.80;99.90;;;;;;6171746;23;20072;-86
2024/01/30 00:25:12;;;;;;;23.95;12.70;;;4.50;99.90;;;;;;6171655;23;20159;-85
2024/01/30 00:27:39;;;;;;;22.23;11.93;;;4.30;99.90;;;;;;6147448;23;20017;-85
2024/01/30 00:30:06;;;;;;;24.35;12.35;;;4.30;99.90;;;;;;6171598;23;20096;-86
2024/01/30 00:32:33;;;;;;;21.98;13.02;;;4.30;99.90;;;;;;6171305;23;20020;-85
2024/01/30 00:34:59;;;;;;;21.13;11.50;;;4.40;99.90;;;;;;6171768;23;20516;-86
2024/01/30 00:37:26;;;;;;;21.33;11.80;;;4.30;99.90;;;;;;6171807;23;20068;-85
2024/01/30 00:39:53;;;;;;;21.42;12.15;;;5.40;99.90;;;;;;6172331;23;20096;-85
2024/01/30 00:42:19;;;;;;;18.60;11.60;;;5.00;99.90;;;;;;6172048;23;20021;-85
2024/01/30 00:44:46;;;;;;;20.05;11.85;;;4.30;99.90;;;;;;6171096;23;20014;-86
2024/01/30 00:47:12;;;;;;;22.23;11.82;;;4.30;99.90;;;;;;6172003;23;20022;-86
2024/01/30 00:49:39;;;;;;;20.45;12.23;;;4.90;99.90;;;;;;6171575;23;20014;-86
2024/01/30 00:52:06;;;;;;;19.92;12.07;;;4.30;99.90;;;;;;6171888;23;20013;-85
2024/01/30 00:54:32;;;;;;;24.33;12.00;;;4.30;99.90;;;;;;6171523;23;20024;-85
2024/01/30 00:56:59;;;;;;;20.77;11.95;;;4.80;99.90;;;;;;6171534;23;20010;-85
2024/01/30 00:59:26;;;;;;;21.90;11.50;;;4.30;99.90;;;;;;6171795;23;20016;-85
2024/01/30 01:01:52;;;;;;;23.10;12.20;;;4.30;99.90;;;;;;6171683;23;20408;-85
2024/01/30 01:04:21;;;;;;;23.33;12.77;;;4.40;99.90;;;;;;6171476;23;20466;-85
2024/01/30 01:06:47;;;;;;;25.35;12.82;;;4.40;99.90;;;;;;6171712;23;20096;-85
2024/01/30 01:09:14;;;;;;;20.58;12.02;;;5.10;99.90;;;;;;6171815;23;20059;-86
2024/01/30 01:11:40;;;;;;;22.73;12.40;;;4.40;99.90;;;;;;6171521;23;20125;-85
2024/01/30 01:14:07;;;;;;;21.45;11.27;;;5.40;99.90;;;;;;6171448;23;20009;-85
2024/01/30 01:16:34;;;;;;;20.48;12.43;;;4.40;99.90;;;;;;6171741;23;20028;-85
2024/01/30 01:19:01;;;;;;;21.75;11.75;;;4.60;99.90;;;;;;6171210;23;20040;-86
2024/01/30 01:21:27;;;;;;;21.88;11.68;;;4.40;99.90;;;;;;6147056;23;20028;-85
2024/01/30 01:23:54;;;;;;;22.05;11.63;;;4.70;99.90;;;;;;6147068;23;20014;-86
2024/01/30 01:26:21;;;;;;;20.85;12.25;;;5.40;99.90;;;;;;6171650;23;20013;-86
2024/01/30 01:28:48;;;;;;;22.85;11.88;;;4.40;99.90;;;;;;6171918;23;20013;-85
2024/01/30 01:31:15;;;;;;;20.77;11.80;;;5.00;99.90;;;;;;6171340;23;20440;-86
2024/01/30 01:33:41;;;;;;;19.67;11.88;;;4.40;99.90;;;;;;6171090;23;20013;-85
2024/01/30 01:36:08;;;;;;;20.40;11.02;;;4.60;99.90;;;;;;6171356;23;20092;-85
2024/01/30 01:38:34;;;;;;;21.17;12.70;;;4.40;99.90;;;;;;6171258;23;20082;-85
2024/01/30 01:41:01;;;;;;;24.35;11.32;;;4.40;99.90;;;;;;6171302;23;20018;-85
2024/01/30 01:43:28;;;;;;;20.83;11.60;;;4.40;99.90;;;;;;6146821;23;20420;-85
2024/01/30 01:45:54;;;;;;;19.35;11.15;;;4.40;99.90;;;;;;6171155;23;20013;-86
2024/01/30 01:48:21;;;;;;;20.50;11.85;;;4.40;99.90;;;;;;6171009;23;20021;-85
2024/01/30 01:50:48;;;;;;;22.45;11.60;;;4.90;99.90;;;;;;6171202;23;20346;-86
2024/01/30 01:53:16;;;;;;;20.63;10.68;;;5.30;99.90;;;;;;6171324;23;20049;-86
2024/01/30 01:55:43;;;;;;;22.67;11.70;;;5.40;99.90;;;;;;6172879;23;20092;-86
2024/01/30 01:58:12;;;;;;;19.83;11.40;;;5.10;99.90;;;;;;6173217;23;20013;-86
2024/01/30 02:00:41;;;;;;;20.23;10.73;;;4.40;99.90;;;;;;6173325;23;20020;-85
2024/01/30 02:03:11;;;;;;;23.48;11.30;;;5.10;99.90;;;;;;6173232;23;20041;-85
2024/01/30 02:05:39;;;;;;;22.80;11.38;;;4.40;99.90;;;;;;6173706;23;20471;-86
2024/01/30 02:08:06;;;;;;;20.92;11.68;;;5.00;99.90;;;;;;6173627;23;20035;-86
2024/01/30 02:10:33;;;;;;;20.25;11.18;;;4.70;99.90;;;;;;6173365;23;20070;-86
2024/01/30 02:13:00;;;;;;;18.35;10.38;;;4.40;99.90;;;;;;6173042;23;20017;-86
2024/01/30 02:15:26;;;;;;;20.50;11.63;;;4.40;99.90;;;;;;6173508;23;20460;-86
2024/01/30 02:17:53;;;;;;;18.95;11.43;;;5.20;99.90;;;;;;6173165;23;20049;-85
2024/01/30 02:20:20;;;;;;;18.40;10.77;;;4.70;99.90;;;;;;6173096;23;20422;-85
2024/01/30 02:22:48;;;;;;;19.35;11.35;;;4.50;99.90;;;;;;6173009;23;20024;-86
2024/01/30 02:25:15;;;;;;;21.25;11.57;;;4.60;99.90;;;;;;6148735;23;20009;-85
2024/01/30 02:27:42;;;;;;;20.80;10.90;;;4.60;99.90;;;;;;6172847;23;20108;-85
2024/01/30 02:30:09;;;;;;;21.45;11.38;;;5.50;99.90;;;;;;6173069;23;20017;-86
2024/01/30 02:32:35;;;;;;;18.48;10.80;;;4.50;99.90;;;;;;6172439;23;20349;-85
2024/01/30 02:35:03;;;;;;;18.85;11.60;;;4.60;99.90;;;;;;6172821;23;20009;-85
2024/01/30 02:37:29;;;;;;;19.75;10.65;;;4.60;99.90;;;;;;6172924;23;20395;-86
2024/01/30 02:39:56;;;;;;;19.27;10.93;;;4.60;99.90;;;;;;6172981;23;20092;-85
2024/01/30 02:42:23;;;;;;;22.42;11.43;;;5.10;99.90;;;;;;6172725;23;20075;-85
2024/01/30 02:44:49;;;;;;;21.50;11.45;;;5.30;99.90;;;;;;6172861;23;20056;-85
2024/01/30 02:47:16;;;;;;;17.52;11.30;;;4.60;99.90;;;;;;6172827;23;20512;-85
2024/01/30 02:49:42;;;;;;;21.60;11.70;;;4.70;99.90;;;;;;6173076;23;20105;-86
2024/01/30 02:52:09;;;;;;;18.45;10.93;;;4.90;99.90;;;;;;6173104;23;20022;-85
2024/01/30 02:54:36;;;;;;;18.85;11.40;;;4.80;99.90;;;;;;6172892;23;20010;-86
2024/01/30 02:57:02;;;;;;;20.05;11.52;;;4.80;99.90;;;;;;6173071;23;20447;-86
2024/01/30 02:59:29;;;;;;;21.52;11.45;;;4.80;99.90;;;;;;6173086;23;20041;-85
2024/01/30 03:01:55;;;;;;;20.40;11.38;;;4.90;99.90;;;;;;6172948;23;20013;-85
2024/01/30 03:04:22;;;;;;;21.40;11.57;;;5.40;99.90;;;;;;6172732;23;20347;-85
2024/01/30 03:06:49;;;;;;;22.02;11.27;;;4.80;99.90;;;;;;6172550;23;20080;-85
2024/01/30 03:09:16;;;;;;;19.50;10.85;;;5.70;99.90;;;;;;6172992;23;20013;-84
2024/01/30 03:11:43;;;;;;;22.45;11.05;;;4.90;99.90;;;;;;6172745;23;20786;-85
2024/01/30 03:14:12;;;;;;;19.88;11.38;;;5.00;99.90;;;;;;6172458;23;20017;-85
2024/01/30 03:16:39;;;;;;;22.77;11.32;;;5.80;99.90;;;;;;6172631;23;20020;-85
2024/01/30 03:19:08;;;;;;;22.17;10.98;;;4.90;99.90;;;;;;6172442;23;20081;-85
2024/01/30 03:21:36;;;;;;;20.77;11.32;;;5.00;99.90;;;;;;6173160;23;20021;-85
2024/01/30 03:24:03;;;;;;;18.80;11.07;;;5.00;99.90;;;;;;6172795;23;20092;-86
2024/01/30 03:26:30;;;;;;;19.70;10.68;;;5.00;99.90;;;;;;6172372;23;20099;-86
2024/01/30 03:28:56;;;;;;;19.58;11.48;;;6.00;99.90;;;;;;6172569;23;20362;-86
2024/01/30 03:31:23;;;;;;;20.30;11.38;;;5.00;99.90;;;;;;6172320;23;20017;-85
2024/01/30 03:33:50;;;;;;;18.33;11.07;;;5.30;99.90;;;;;;6172237;23;20022;-86
2024/01/30 03:36:17;;;;;;;18.20;11.00;;;5.40;99.90;;;;;;6172386;23;20071;-86
2024/01/30 03:38:43;;;;;;;19.58;11.45;;;5.20;99.90;;;;;;6172148;23;20013;-86
2024/01/30 03:41:10;;;;;;;22.45;11.35;;;5.10;99.90;;;;;;6172304;23;20010;-85
2024/01/30 03:43:37;;;;;;;21.00;11.70;;;5.50;99.90;;;;;;6172102;23;20017;-85
2024/01/30 03:46:03;;;;;;;18.58;11.18;;;5.70;99.90;;;;;;6148007;23;20356;-85
2024/01/30 03:48:30;;;;;;;17.92;11.40;;;5.20;99.90;;;;;;6172218;23;20021;-85
2024/01/30 03:50:57;;;;;;;23.15;11.70;;;5.20;99.90;;;;;;6172409;23;20041;-85
2024/01/30 03:53:23;;;;;;;19.48;11.70;;;5.10;99.90;;;;;;6172651;23;20013;-85
2024/01/30 03:55:50;;;;;;;20.58;11.80;;;5.50;99.90;;;;;;6172251;23;20014;-86
2024/01/30 03:58:17;;;;;;;18.77;11.57;;;5.20;99.90;;;;;;6172337;23;20032;-86
2024/01/30 04:00:44;;;;;;;20.65;11.38;;;5.20;99.90;;;;;;6171976;23;20041;-86
2024/01/30 04:03:11;;;;;;;19.20;11.60;;;6.50;99.90;;;;;;6171697;23;20013;-85
2024/01/30 04:05:37;;;;;;;20.80;11.05;;;6.10;99.90;;;;;;6172264;23;20017;-86
2024/01/30 04:08:04;;;;;;;21.67;10.48;;;5.30;99.90;;;;;;6172322;23;20045;-86
2024/01/30 04:10:31;;;;;;;18.80;11.13;;;5.30;99.90;;;;;;6172270;23;20461;-86
2024/01/30 04:12:57;;;;;;;19.30;10.48;;;5.30;99.90;;;;;;6172273;23;20113;-86
2024/01/30 04:15:24;;;;;;;19.38;11.15;;;6.30;99.90;;;;;;6172340;23;20005;-86
2024/01/30 04:17:51;;;;;;;19.48;11.27;;;5.30;99.90;;;;;;6171910;23;20049;-86
2024/01/30 04:20:17;;;;;;;18.48;11.02;;;5.50;99.90;;;;;;6172011;23;20013;-85
2024/01/30 04:22:45;;;;;;;18.00;10.45;;;5.40;99.90;;;;;;6172206;23;20021;-85
2024/01/30 04:25:14;;;;;;;17.90;11.10;;;5.40;99.90;;;;;;6172058;23;20056;-85
2024/01/30 04:27:41;;;;;;;18.17;10.60;;;5.40;99.90;;;;;;6171955;23;20017;-86
2024/01/30 04:30:08;;;;;;;21.90;11.38;;;5.80;99.90;;;;;;6172279;23;20507;-85
2024/01/30 04:32:36;;;;;;;18.80;10.30;;;5.40;99.90;;;;;;6171595;23;20068;-85
2024/01/30 04:35:03;;;;;;;21.67;10.23;;;6.40;99.90;;;;;;6171995;23;20053;-86
2024/01/30 04:37:30;;;;;;;18.77;10.60;;;5.40;99.90;;;;;;6171976;23;20726;-85
2024/01/30 04:39:56;;;;;;;20.05;10.93;;;5.40;99.90;;;;;;6171910;23;20018;-86
2024/01/30 04:42:23;;;;;;;19.80;10.23;;;6.50;99.90;;;;;;6172034;23;20088;-86
2024/01/30 04:44:50;;;;;;;18.45;11.00;;;5.40;99.90;;;;;;6172170;23;20092;-86
2024/01/30 04:47:17;;;;;;;18.02;11.18;;;5.40;99.90;;;;;;6171830;23;20317;-86
2024/01/30 04:49:43;;;;;;;22.77;10.52;;;5.40;99.90;;;;;;6172122;23;20013;-85
2024/01/30 04:52:10;;;;;;;17.45;10.65;;;5.80;99.90;;;;;;6172060;23;20033;-85
2024/01/30 04:54:37;;;;;;;17.65;10.77;;;6.10;99.90;;;;;;6171817;23;20010;-85
2024/01/30 04:57:05;;;;;;;22.05;11.80;;;6.40;99.90;;;;;;6172102;23;20014;-86
2024/01/30 04:59:32;;;;;;;16.77;10.65;;;5.50;99.90;;;;;;6171733;23;20020;-86
2024/01/30 05:01:58;;;;;;;21.02;11.10;;;5.80;99.90;;;;;;6171862;23;20348;-86
2024/01/30 05:04:25;;;;;;;18.38;10.98;;;5.60;99.90;;;;;;6171694;23;20016;-85
2024/01/30 05:06:51;;;;;;;19.80;11.65;;;5.60;99.90;;;;;;6171826;23;20014;-86
2024/01/30 05:09:18;;;;;;;18.75;11.13;;;5.60;99.90;;;;;;6171612;23;20385;-85
2024/01/30 05:11:45;;;;;;;18.60;11.32;;;5.60;99.90;;;;;;6171778;23;20452;-85
2024/01/30 05:14:12;;;;;;;18.48;10.98;;;6.20;99.90;;;;;;6171341;23;20013;-86
2024/01/30 05:16:38;;;;;;;18.33;11.10;;;5.90;99.90;;;;;;6171674;23;20036;-85
2024/01/30 05:19:05;;;;;;;18.55;11.45;;;5.70;99.90;;;;;;6171563;23;20089;-85
2024/01/30 05:21:31;;;;;;;20.60;11.15;;;5.70;99.90;;;;;;6171908;23;20456;-86
2024/01/30 05:23:58;;;;;;;21.60;11.65;;;6.20;99.90;;;;;;6171664;23;20096;-86
2024/01/30 05:26:25;;;;;;;20.83;11.23;;;5.70;99.90;;;;;;6171687;23;20020;-85
2024/01/30 05:28:51;;;;;;;19.27;11.27;;;5.70;99.90;;;;;;6171537;23;20092;-86
2024/01/30 05:31:18;;;;;;;18.67;11.55;;;5.70;99.90;;;;;;6171278;23;20020;-86
2024/01/30 05:33:44;;;;;;;21.92;11.10;;;6.10;99.90;;;;;;6171375;23;20017;-86
2024/01/30 05:36:14;;;;;;;17.38;10.80;;;6.10;99.90;;;;;;6171815;23;20468;-86
2024/01/30 05:38:42;;;;;;;18.98;10.93;;;5.80;99.90;;;;;;6171517;23;20317;-86
2024/01/30 05:41:09;;;;;;;18.83;10.85;;;6.10;99.90;;;;;;6171837;23;20088;-86
2024/01/30 05:43:36;;;;;;;19.80;11.50;;;5.80;99.90;;;;;;6147825;23;20084;-86
2024/01/30 05:46:02;;;;;;;19.65;10.73;;;6.10;99.90;;;;;;6171483;23;20060;-86
2024/01/30 05:48:29;;;;;;;18.52;11.45;;;5.90;99.90;;;;;;6171819;23;20024;-86
2024/01/30 05:50:56;;;;;;;19.52;10.55;;;5.90;99.90;;;;;;6172092;23;20464;-86
2024/01/30 05:53:23;;;;;;;21.73;11.88;;;6.20;99.90;;;;;;6171580;23;20014;-85
2024/01/30 05:55:49;;;;;;;21.10;11.88;;;6.50;99.90;;;;;;6171537;23;20014;-85
2024/01/30 05:58:16;;;;;;;21.00;11.50;;;6.80;99.90;;;;;;6171468;23;20006;-85
2024/01/30 06:00:43;;;;;;;21.45;11.77;;;6.10;99.90;;;;;;6171546;23;20014;-86
2024/01/30 06:03:09;;;;;;;23.52;11.70;;;6.10;99.90;;;;;;6171765;23;20595;-86
2024/01/30 06:05:36;;;;;;;21.17;11.88;;;6.10;99.90;;;;;;6171841;23;20021;-86
2024/01/30 06:08:03;;;;;;;25.83;12.20;;;6.10;99.90;;;;;;6171619;23;20017;-86
2024/01/30 06:10:29;;;;;;;18.45;11.63;;;6.10;99.90;;;;;;6171435;23;20013;-86
2024/01/30 06:12:56;;;;;;;19.58;12.13;;;6.40;99.90;;;;;;6171368;23;20009;-86
2024/01/30 06:15:23;;;;;;;19.75;11.52;;;7.10;99.90;;;;;;6171396;23;20457;-86
2024/01/30 06:17:49;;;;;;;22.20;11.75;;;6.20;99.90;;;;;;6171287;23;20029;-86
2024/01/30 06:20:16;;;;;;;20.20;11.57;;;6.90;99.90;;;;;;6171522;23;20388;-86
2024/01/30 06:22:42;;;;;;;21.05;11.82;;;6.20;99.90;;;;;;6171468;23;20076;-85
2024/01/30 06:25:10;;;;;;;22.35;12.35;;;6.40;99.90;;;;;;6171491;23;20052;-86
2024/01/30 06:27:36;;;;;;;21.88;11.95;;;7.00;99.90;;;;;;6171316;23;20021;-85
2024/01/30 06:30:04;;;;;;;18.40;11.77;;;6.20;99.90;;;;;;6147142;23;20017;-86
2024/01/30 06:32:34;;;;;;;17.38;10.68;;;6.20;99.90;;;;;;6171232;23;20017;-85
2024/01/30 06:35:01;;;;;;;19.13;11.23;;;6.20;99.90;;;;;;6171213;23;20049;-86
2024/01/30 06:37:28;;;;;;;19.15;11.77;;;6.20;99.90;;;;;;6171774;23;20049;-86
2024/01/30 06:39:55;;;;;;;17.55;11.20;;;6.20;99.90;;;;;;6171565;23;20013;-86
2024/01/30 06:42:21;;;;;;;18.00;11.95;;;7.30;99.90;;;;;;6172677;23;20009;-86
2024/01/30 06:44:48;;;;;;;18.13;10.95;;;6.50;99.90;;;;;;6173504;23;20005;-86
2024/01/30 06:47:14;;;;;;;20.85;11.52;;;7.10;99.90;;;;;;6173554;23;20100;-86
2024/01/30 06:49:42;;;;;;;21.45;10.95;;;7.50;99.90;;;;;;6173601;23;20010;-86
2024/01/30 06:52:08;;;;;;;21.27;11.45;;;6.20;99.90;;;;;;6173529;23;20013;-86
2024/01/30 06:54:35;;;;;;;22.48;11.52;;;6.30;99.90;;;;;;6173430;23;20024;-86
2024/01/30 06:57:02;;;;;;;20.27;11.15;;;7.20;99.90;;;;;;6173946;23;20042;-86
2024/01/30 06:59:28;;;;;;;19.73;11.07;;;6.30;99.90;;;;;;6172618;23;20018;-85
2024/01/30 07:01:55;;;;;;;20.48;11.07;;;6.80;99.90;;;;;;6172844;23;20010;-85
2024/01/30 07:04:21;;;;;;;18.75;11.20;;;6.30;99.90;;;;;;6172505;23;20094;-86
2024/01/30 07:06:48;;;;;;;19.65;11.85;;;6.30;99.90;;;;;;6172727;23;20072;-86
2024/01/30 07:09:15;;;;;;;20.50;11.15;;;6.40;99.90;;;;;;6172967;23;20017;-86
2024/01/30 07:11:41;;;;;;;20.58;11.48;;;6.40;99.90;;;;;;6173176;23;20025;-87
2024/01/30 07:14:09;;;;;;;20.83;11.00;;;7.10;99.90;;;;;;6172900;23;20013;-86
2024/01/30 07:16:36;;;;;;;17.30;10.40;;;7.50;99.90;;;;;;6172496;23;20349;-87
2024/01/30 07:19:02;;;;;;;18.05;10.40;;;6.50;99.90;;;;;;6172860;23;20016;-86
2024/01/30 07:21:29;;;;;;;20.52;10.88;;;7.10;99.90;;;;;;6172624;23;20018;-86
2024/01/30 07:23:55;;;;;;;21.30;10.73;;;7.60;99.90;;;;;;6172303;23;20021;-86
2024/01/30 07:26:22;;;;;;;17.38;10.77;;;6.70;99.90;;;;;;6171965;23;20036;-86
2024/01/30 07:28:50;;;;;;;17.98;10.95;;;6.90;99.90;;;;;;6172118;23;20019;-86
2024/01/30 07:31:16;;;;;;;19.58;10.90;;;6.60;99.90;;;;;;6172286;23;20021;-86
2024/01/30 07:33:43;;;;;;;17.75;10.63;;;7.20;99.90;;;;;;6172310;23;20018;-86
2024/01/30 07:36:10;;;;;;;21.70;10.65;;;7.50;99.90;;;;;;6172655;23;20005;-87
2024/01/30 07:38:37;;;;;;;20.17;10.25;;;6.60;99.90;;;;;;6178200;23;20060;-87
2024/01/30 07:41:03;;;;;;;18.45;10.55;;;6.60;99.90;;;;;;6174562;23;20017;-88
2024/01/30 07:43:30;;;;;;;16.77;9.88;;;6.60;99.90;;;;;;6172375;23;20017;-88
2024/01/30 07:45:57;;;;;;;18.60;10.52;;;6.60;99.90;;;;;;6147960;23;20013;-88
2024/01/30 07:48:23;;;;;;;17.50;10.30;;;6.60;99.90;;;;;;6172171;23;20448;-86
2024/01/30 07:50:50;;;;;;;20.17;10.48;;;7.10;99.90;;;;;;6172174;23;20117;-86
2024/01/30 07:53:17;;;;;;;15.82;10.52;;;6.60;99.90;;;;;;6171935;23;20045;-87
2024/01/30 07:55:46;;;;;;;18.33;10.70;;;6.60;99.90;;;;;;6172491;23;20014;-87
2024/01/30 07:58:13;;;;;;;20.10;10.45;;;6.60;99.90;;;;;;6172272;23;20449;-87
2024/01/30 08:00:39;;;;;;;14.88;9.63;;;6.70;99.90;;;;;;6172265;23;20095;-87
2024/01/30 08:03:06;;;;;;;22.23;10.88;;;6.70;99.90;;;;;;6147581;23;20022;-86
2024/01/30 08:05:33;;;;;;;19.98;10.65;;;6.70;99.90;;;;;;6172190;23;20017;-87
2024/01/30 08:07:59;;;;;;;17.15;9.43;;;6.70;99.90;;;;;;6172427;23;20017;-87
2024/01/30 08:10:26;;;;;;;19.80;11.05;;;7.60;99.90;;;;;;6147776;23;20144;-87
2024/01/30 08:12:52;;;;;;;19.52;10.57;;;6.80;99.90;;;;;;6171671;23;20013;-87
2024/01/30 08:15:19;;;;;;;19.55;10.50;;;6.70;99.90;;;;;;6171948;23;20017;-87
2024/01/30 08:17:46;;;;;;;22.23;12.25;;;7.00;99.90;;;;;;6171805;23;20352;-87
2024/01/30 08:20:13;;;;;;;18.20;10.50;;;7.30;99.90;;;;;;6147319;23;20022;-87
2024/01/30 08:22:40;;;;;;;17.25;10.43;;;6.80;99.90;;;;;;6171782;23;20093;-87
2024/01/30 08:25:07;;;;;;;16.92;10.55;;;7.60;99.90;;;;;;6171763;23;20063;-87
2024/01/30 08:27:35;;;;;;;18.17;10.73;;;6.90;99.90;;;;;;6171981;23;20021;-87
2024/01/30 08:30:02;;;;;;;18.20;10.95;;;7.90;99.90;;;;;;6172181;23;20013;-87
2024/01/30 08:32:29;;;;;;;18.95;11.43;;;7.00;99.90;;;;;;6172168;23;20020;-87
2024/01/30 08:34:56;;;;;;;20.52;11.27;;;6.90;99.90;;;;;;6171658;23;20014;-86
2024/01/30 08:37:22;;;;;;;16.23;9.73;;;7.00;99.90;;;;;;6171238;23;20037;-86
2024/01/30 08:39:49;;;;;;;18.00;11.50;;;7.00;99.90;;;;;;6147545;23;20013;-85
2024/01/30 08:42:18;;;;;;;20.27;9.93;;;7.00;99.90;;;;;;6170160;23;20098;-87
2024/01/30 08:44:45;;;;;;;16.05;9.93;;;7.10;99.90;;;;;;6171444;23;20088;-87
2024/01/30 08:47:11;;;;;;;20.67;10.80;;;7.10;99.90;;;;;;6171312;23;20071;-86
2024/01/30 08:49:38;;;;;;;16.50;9.98;;;7.20;99.90;;;;;;6171492;23;20010;-87
2024/01/30 08:52:05;;;;;;;17.15;10.15;;;7.40;99.90;;;;;;6171836;23;20519;-87
2024/01/30 08:54:34;;;;;;;18.17;9.57;;;7.30;99.90;;;;;;6171629;23;20014;-87
2024/01/30 08:57:00;;;;;;;22.17;10.13;;;8.20;99.90;;;;;;6147636;23;20448;-87
2024/01/30 08:59:27;;;;;;;19.25;9.85;;;7.50;99.90;;;;;;6171901;23;20009;-87
2024/01/30 09:01:55;;;;;;;20.92;10.30;;;7.90;99.90;;;;;;6147642;23;20017;-87
2024/01/30 09:04:21;;;;;;;18.20;9.82;;;7.80;99.90;;;;;;6171198;23;20021;-87
2024/01/30 09:06:48;;;;;;;19.23;10.02;;;7.90;99.90;;;;;;6147433;23;20017;-86
2024/01/30 09:09:15;;;;;;;16.60;9.63;;;7.70;99.90;;;;;;6171751;23;20018;-86
2024/01/30 09:11:43;;;;;;;16.25;9.50;;;7.80;99.90;;;;;;6171675;23;20032;-87
2024/01/30 09:14:09;;;;;;;19.50;9.35;;;8.00;99.90;;;;;;6147614;23;20018;-87
2024/01/30 09:16:36;;;;;;;15.93;9.43;;;8.40;99.90;;;;;;6147432;23;20013;-87
2024/01/30 09:19:03;;;;;;;14.40;9.00;;;8.50;99.90;;;;;;6147590;23;20013;-86
2024/01/30 09:21:29;;;;;;;18.10;9.65;;;8.70;99.90;;;;;;6171061;23;20013;-86
2024/01/30 09:24:03;;;;;;;14.77;9.32;;;8.10;99.90;;;;;;6147420;23;20016;-87
2024/01/30 09:26:30;;;;;;;19.85;9.38;;;8.10;99.90;;;;;;6147044;23;20060;-87
2024/01/30 09:28:57;;;;;;;17.60;9.77;;;8.40;99.90;;;;;;6171866;23;20341;-88
2024/01/30 09:31:23;;;;;;;19.10;10.50;;;8.20;99.90;;;;;;6147374;23;20022;-88
2024/01/30 09:33:51;;;;;;;16.10;10.13;;;8.20;99.90;;;;;;6172088;23;20017;-87
2024/01/30 09:36:19;;;;;;;13.30;9.18;;;8.30;99.90;;;;;;6172140;23;20033;-88
2024/01/30 09:38:46;;;;;;;13.73;8.95;;;8.30;99.90;;;;;;6147854;23;20033;-87
2024/01/30 09:41:13;;;;;;;17.05;9.02;;;9.10;99.90;;;;;;6172126;23;20025;-87
2024/01/30 09:43:40;;;;;;;15.38;9.02;;;9.10;99.90;;;;;;6147330;23;20019;-86
2024/01/30 09:46:13;;;;;;;15.98;9.27;;;8.60;99.90;;;;;;6146840;23;20013;-87
2024/01/30 09:48:42;;;;;;;14.27;9.48;;;8.90;99.90;;;;;;6171400;23;20053;-87
2024/01/30 09:51:14;;;;;;;17.33;8.65;;;8.40;99.90;;;;;;6171386;23;20051;-87
2024/01/30 09:53:43;;;;;;;17.30;8.88;;;8.50;99.90;;;;;;6147122;23;20014;-88
2024/01/30 09:56:12;;;;;;;17.38;9.63;;;8.70;99.90;;;;;;6147058;23;20009;-87
2024/01/30 09:58:39;;;;;;;15.95;8.98;;;8.60;99.90;;;;;;6147141;23;20448;-87
2024/01/30 10:01:06;;;;;;;14.75;8.85;;;8.80;99.90;;;;;;6171386;23;20076;-87
2024/01/30 10:03:34;;;;;;;16.38;9.38;;;9.40;99.90;;;;;;6171939;23;20053;-88
2024/01/30 10:06:01;;;;;;;14.05;8.27;;;9.70;99.90;;;;;;6147550;23;20009;-88
2024/01/30 10:08:29;;;;;;;18.10;8.43;;;8.70;99.90;;;;;;6147525;23;20013;-88
2024/01/30 10:10:56;;;;;;;19.00;8.73;;;9.20;99.90;;;;;;6147099;23;20014;-86
2024/01/30 10:13:23;;;;;;;15.75;8.25;;;8.90;99.90;;;;;;6147195;23;20025;-86
2024/01/30 10:15:51;;;;;;;16.58;8.20;;;9.00;99.90;;;;;;6148230;23;20010;-86
2024/01/30 10:18:17;;;;;;;12.70;8.18;;;9.00;99.90;;;;;;6149657;23;20017;-85
2024/01/30 10:20:44;;;;;;;15.95;7.80;;;9.00;99.90;;;;;;6148985;23;20072;-83
2024/01/30 10:23:11;;;;;;;17.02;8.43;;;9.00;99.90;;;;;;6172986;23;20329;-84
2024/01/30 10:25:38;;;;;;;16.13;9.18;;;9.10;99.90;;;;;;6173096;23;20067;-88
2024/01/30 10:28:05;;;;;;;14.30;8.40;;;9.10;99.90;;;;;;6173406;23;20088;-86
2024/01/30 10:30:32;;;;;;;20.08;9.23;;;9.20;99.90;;;;;;6148754;23;20017;-85
2024/01/30 10:32:58;;;;;;;15.38;8.32;;;9.20;99.90;;;;;;6149014;23;20033;-85
2024/01/30 10:35:25;;;;;;;16.10;9.65;;;9.20;99.90;;;;;;6149086;23;20010;-86
2024/01/30 10:37:52;;;;;;;15.63;8.52;;;9.80;99.90;;;;;;6148818;23;20009;-85
2024/01/30 10:40:26;;;;;;;17.27;10.93;;;9.20;99.90;;;;;;6148788;23;20045;-85
2024/01/30 10:42:55;;;;;;;21.05;11.63;;;9.50;99.90;;;;;;6173376;23;20372;-85
2024/01/30 10:45:27;;;;;;;19.80;11.18;;;9.30;99.90;;;;;;6173968;23;20013;-86
2024/01/30 10:47:58;;;;;;;18.42;9.70;;;9.60;99.90;;;;;;6173457;23;20025;-86
2024/01/30 10:50:25;;;;;;;16.23;9.73;;;9.30;99.90;;;;;;6149243;23;20014;-86
2024/01/30 10:52:54;;;;;;;18.25;9.57;;;9.30;99.90;;;;;;6149424;23;20013;-87
2024/01/30 10:55:23;;;;;;;21.33;10.10;;;9.30;99.90;;;;;;6149255;23;20075;-88
2024/01/30 10:57:50;;;;;;;17.45;9.38;;;10.30;99.90;;;;;;6173182;23;20708;-87
2024/01/30 11:00:19;;;;;;;15.38;8.38;;;9.30;99.90;;;;;;6149254;23;20049;-85
2024/01/30 11:02:47;;;;;;;13.18;8.32;;;9.30;99.90;;;;;;6148964;23;20018;-86
2024/01/30 11:05:15;;;;;;;13.88;8.35;;;9.40;99.90;;;;;;6148998;23;20021;-86
2024/01/30 11:07:42;;;;;;;14.52;7.93;;;9.50;99.90;;;;;;6149135;23;20024;-88
2024/01/30 11:10:09;;;;;;;15.98;8.15;;;9.50;99.90;;;;;;6148680;23;20014;-86
2024/01/30 11:12:46;;;;;;;14.50;8.68;;;9.50;99.90;;;;;;6148477;23;20024;-85
2024/01/30 11:15:14;;;;;;;17.20;8.57;;;9.50;99.90;;;;;;6148351;23;20014;-85
2024/01/30 11:17:42;;;;;;;17.70;8.13;;;9.90;99.90;;;;;;6148266;23;20013;-84
2024/01/30 11:20:15;;;;;;;16.85;8.15;;;9.60;99.90;;;;;;6172130;23;20519;-85
2024/01/30 11:22:44;;;;;;;18.42;8.82;;;9.60;99.90;;;;;;6147934;23;20013;-84
2024/01/30 11:25:14;;;;;;;13.20;8.05;;;9.60;99.90;;;;;;6148120;23;20017;-84
2024/01/30 11:27:45;;;;;;;15.75;8.15;;;9.70;99.90;;;;;;6147693;23;20018;-84
2024/01/30 11:30:21;;;;;;;14.50;8.57;;;9.60;99.90;;;;;;6147969;23;20017;-84
2024/01/30 11:33:04;;;;;;;16.42;8.70;;;9.70;99.90;;;;;;6147951;23;20017;-84
2024/01/30 11:35:33;;;;;;;16.55;8.43;;;9.60;99.90;;;;;;6171974;23;20009;-84
2024/01/30 11:38:00;;;;;;;16.35;8.57;;;9.70;99.90;;;;;;6172146;23;20326;-84
2024/01/30 11:40:31;;;;;;;16.92;8.48;;;9.70;99.90;;;;;;6147755;23;20069;-84
2024/01/30 11:42:59;;;;;;;15.73;8.77;;;9.70;99.90;;;;;;6147633;23;20097;-84
2024/01/30 11:45:27;;;;;;;16.10;8.90;;;9.90;99.90;;;;;;6147929;23;20020;-85
2024/01/30 11:47:55;;;;;;;16.52;9.00;;;10.30;99.90;;;;;;6147472;23;20476;-84
2024/01/30 11:50:21;;;;;;;18.50;10.13;;;9.80;99.90;;;;;;6147846;23;20009;-86
2024/01/30 11:52:48;;;;;;;20.90;10.02;;;9.90;99.90;;;;;;6172961;23;20091;-86
2024/01/30 11:55:15;;;;;;;16.30;9.00;;;9.80;99.90;;;;;;6172645;23;20009;-86
2024/01/30 11:57:44;;;;;;;18.15;9.13;;;9.90;99.90;;;;;;6148611;23;20494;-87
2024/01/30 12:00:18;;;;;;;15.18;8.82;;;10.40;99.90;;;;;;6148458;23;20060;-86
2024/01/30 12:02:55;;;;;;;18.60;10.50;;;10.00;99.90;;;;;;6148321;23;20723;-86
2024/01/30 12:05:23;;;;;;;16.63;9.98;;;10.00;99.90;;;;;;6172809;23;20065;-86
2024/01/30 12:07:50;;;;;;;17.75;9.88;;;10.00;99.90;;;;;;6148462;23;20024;-86
2024/01/30 12:10:20;;;;;;;18.13;9.50;;;9.90;99.90;;;;;;6148819;23;20017;-86
2024/01/30 12:12:48;;;;;;;18.17;10.93;;;10.00;99.90;;;;;;6172614;23;20017;-86
2024/01/30 12:15:15;;;;;;;21.63;12.10;;;10.00;99.90;;;;;;6172868;23;20013;-86
2024/01/30 12:17:42;;;;;;;18.83;10.15;;;9.90;99.90;;;;;;6172655;23;20017;-86
2024/01/30 12:20:19;;;;;;;20.23;12.65;;;10.00;99.90;;;;;;6172395;23;20381;-86
2024/01/30 12:22:48;;;;;;;17.38;10.48;;;9.90;99.90;;;;;;6148361;23;20100;-86
2024/01/30 12:25:19;;;;;;;17.58;9.85;;;10.00;99.90;;;;;;6172514;23;20108;-86
2024/01/30 12:27:52;;;;;;;14.90;9.30;;;10.00;99.90;;;;;;6148407;23;20013;-86
2024/01/30 12:30:20;;;;;;;17.00;10.50;;;10.00;99.90;;;;;;6148044;23;20460;-86
2024/01/30 12:32:49;;;;;;;18.50;9.50;;;10.00;99.90;;;;;;6172856;23;20017;-86
2024/01/30 12:35:18;;;;;;;16.60;9.13;;;10.00;99.90;;;;;;6148329;23;20013;-86
2024/01/30 12:37:45;;;;;;;20.17;10.07;;;10.10;99.90;;;;;;6148524;23;20032;-86